createdAt,value
2017-04-26T00:02:03.149Z,42.6
2017-04-26T00:07:03.873Z,42.9
2017-04-26T00:12:03.941Z,42.8
2017-04-26T00:17:04.849Z,42.8
2017-04-26T00:22:03.901Z,42.9
2017-04-26T00:27:03.443Z,42.7
2017-04-26T00:32:04.068Z,42.8
2017-04-26T00:37:03.612Z,42.8
2017-04-26T00:42:03.417Z,42.9
2017-04-26T00:47:03.452Z,43.0
2017-04-26T00:52:03.394Z,43.0
2017-04-26T00:57:03.542Z,43.0
2017-04-26T01:02:03.331Z,42.8
2017-04-26T01:07:03.489Z,42.9
2017-04-26T01:12:04.173Z,42.9
2017-04-26T01:17:03.527Z,42.8
2017-04-26T01:22:03.508Z,42.8
2017-04-26T01:27:03.398Z,42.8
2017-04-26T01:32:03.382Z,42.6
2017-04-26T01:37:03.306Z,42.8
2017-04-26T01:42:03.131Z,42.8
2017-04-26T01:47:03.984Z,42.7
2017-04-26T01:52:03.017Z,42.7
2017-04-26T01:57:03.185Z,42.6
2017-04-26T02:02:03.559Z,42.5
2017-04-26T02:07:04.148Z,42.9
2017-04-26T02:12:04.109Z,42.8
2017-04-26T02:17:03.742Z,42.7
2017-04-26T02:22:03.574Z,42.6
2017-04-26T02:27:04.110Z,42.6
2017-04-26T02:32:03.616Z,42.5
2017-04-26T02:37:03.934Z,42.5
2017-04-26T02:42:03.636Z,42.5
2017-04-26T02:47:03.471Z,42.5
2017-04-26T02:52:03.768Z,42.5
2017-04-26T02:57:03.175Z,42.6
2017-04-26T03:02:03.347Z,42.5
2017-04-26T03:07:03.700Z,42.5
2017-04-26T03:12:03.164Z,42.4
2017-04-26T03:17:03.859Z,42.5
2017-04-26T03:22:03.840Z,42.5
2017-04-26T03:27:03.104Z,42.6
2017-04-26T03:32:03.410Z,42.4
2017-04-26T03:37:03.633Z,42.5
2017-04-26T03:42:03.862Z,42.5
2017-04-26T03:47:08.104Z,42.5
2017-04-26T03:52:03.611Z,42.4
2017-04-26T03:57:03.057Z,42.4
2017-04-26T04:02:21.661Z,42.4
2017-04-26T04:07:03.766Z,42.5
2017-04-26T04:12:03.165Z,42.5
2017-04-26T04:17:23.761Z,42.4
2017-04-26T04:22:03.347Z,42.3
2017-04-26T04:27:03.572Z,42.4
2017-04-26T04:32:27.601Z,42.5
2017-04-26T04:37:03.087Z,42.5
2017-04-26T04:42:03.623Z,42.4
2017-04-26T04:47:27.733Z,42.5
2017-04-26T04:52:03.607Z,42.5
2017-04-26T04:57:03.943Z,42.5
2017-04-26T05:02:27.776Z,42.4
2017-04-26T05:07:03.365Z,42.3
2017-04-26T05:12:03.892Z,42.4
2017-04-26T05:17:25.313Z,42.4
2017-04-26T05:22:03.900Z,42.4
2017-04-26T05:27:03.548Z,42.4
2017-04-26T05:32:28.176Z,42.5
2017-04-26T05:37:03.742Z,42.5
2017-04-26T05:42:03.172Z,42.5
2017-04-26T05:47:23.815Z,42.3
2017-04-26T05:52:03.422Z,42.3
2017-04-26T05:57:03.799Z,42.3
2017-04-26T06:02:26.363Z,42.2
2017-04-26T06:07:03.860Z,42.2
2017-04-26T06:12:03.838Z,42.5
2017-04-26T06:17:24.233Z,42.1
2017-04-26T06:22:03.214Z,42.1
2017-04-26T06:27:03.651Z,41.7
2017-04-26T06:32:27.960Z,41.6
2017-04-26T06:37:03.431Z,41.6
2017-04-26T06:42:03.777Z,41.6
2017-04-26T06:47:28.081Z,41.6
2017-04-26T06:52:03.647Z,41.7
2017-04-26T06:57:03.003Z,41.5
2017-04-26T07:02:24.911Z,41.5
2017-04-26T07:07:03.595Z,41.5
2017-04-26T07:12:03.173Z,41.5
2017-04-26T07:17:28.474Z,41.3
2017-04-26T07:22:03.707Z,41.1
2017-04-26T07:27:03.182Z,41.5
2017-04-26T07:32:27.259Z,41.5
2017-04-26T07:37:03.131Z,41.8
2017-04-26T07:42:03.539Z,41.8
2017-04-26T07:47:28.826Z,41.9
2017-04-26T07:52:03.426Z,42.0
2017-04-26T07:57:03.760Z,42.0
2017-04-26T08:02:26.603Z,41.6
2017-04-26T08:07:03.619Z,41.1
2017-04-26T08:12:03.152Z,41.1
2017-04-26T08:17:25.541Z,41.0
2017-04-26T08:22:03.190Z,41.0
2017-04-26T08:27:03.649Z,41.2
2017-04-26T08:32:24.368Z,41.3
2017-04-26T08:37:03.445Z,41.3
2017-04-26T08:42:03.721Z,41.0
2017-04-26T08:47:28.434Z,41.0
2017-04-26T08:52:03.222Z,41.2
2017-04-26T08:57:03.636Z,41.5
2017-04-26T09:02:27.567Z,41.4
2017-04-26T09:07:03.748Z,42.0
2017-04-26T09:12:03.185Z,42.4
2017-04-26T09:17:28.431Z,42.4
2017-04-26T09:22:03.275Z,42.2
2017-04-26T09:27:03.663Z,42.2
2017-04-26T09:32:23.214Z,42.1
2017-04-26T09:37:03.573Z,42.1
2017-04-26T09:42:03.847Z,41.7
2017-04-26T09:47:28.343Z,41.8
2017-04-26T09:52:03.422Z,42.0
2017-04-26T09:57:03.748Z,42.0
2017-04-26T10:02:23.459Z,41.9
2017-04-26T10:07:03.959Z,42.0
2017-04-26T10:12:03.637Z,42.5
2017-04-26T10:17:28.658Z,42.2
2017-04-26T10:22:03.688Z,42.2
2017-04-26T10:27:03.111Z,42.4
2017-04-26T10:32:22.145Z,41.7
2017-04-26T10:37:03.960Z,42.4
2017-04-26T10:42:03.287Z,42.7
2017-04-26T10:47:28.834Z,42.9
2017-04-26T10:52:03.861Z,43.0
2017-04-26T10:57:03.313Z,43.0
2017-04-26T11:02:23.788Z,43.4
2017-04-26T11:07:03.739Z,43.4
2017-04-26T11:12:03.254Z,43.4
2017-04-26T11:17:25.274Z,43.8
2017-04-26T11:22:03.229Z,43.8
2017-04-26T11:27:03.663Z,43.7
2017-04-26T11:32:27.870Z,43.7
2017-04-26T11:37:03.532Z,43.7
2017-04-26T11:42:03.831Z,44.1
2017-04-26T11:47:23.698Z,44.5
2017-04-26T11:52:03.470Z,44.2
2017-04-26T11:57:03.725Z,44.2
2017-04-26T12:02:26.815Z,44.0
2017-04-26T12:07:03.665Z,43.9
2017-04-26T12:12:03.196Z,43.9
2017-04-26T12:17:28.678Z,44.2
2017-04-26T12:22:03.175Z,44.1
2017-04-26T12:27:03.559Z,44.3
2017-04-26T12:32:19.224Z,44.0
2017-04-26T12:37:03.552Z,44.0
2017-04-26T12:42:03.843Z,44.2
2017-04-26T12:47:28.236Z,44.4
2017-04-26T12:52:03.756Z,44.4
2017-04-26T12:57:03.205Z,44.6
2017-04-26T13:02:27.627Z,44.6
2017-04-26T13:07:03.852Z,44.9
2017-04-26T13:12:03.474Z,44.6
2017-04-26T13:17:29.145Z,44.5
2017-04-26T13:22:04.000Z,44.4
2017-04-26T13:27:03.411Z,44.4
2017-04-26T13:32:24.129Z,44.4
2017-04-26T13:37:03.763Z,44.3
2017-04-26T13:42:03.152Z,44.3
2017-04-26T13:47:24.982Z,44.4
2017-04-26T13:52:03.729Z,44.3
2017-04-26T13:57:03.041Z,44.3
2017-04-26T14:02:23.457Z,44.4
2017-04-26T14:07:03.178Z,44.3
2017-04-26T14:12:03.678Z,44.1
2017-04-26T14:17:29.221Z,44.3
2017-04-26T14:22:03.617Z,44.3
2017-04-26T14:27:03.540Z,44.7
2017-04-26T14:32:24.024Z,45.0
2017-04-26T14:37:03.561Z,45.0
2017-04-26T14:42:03.825Z,45.0
2017-04-26T14:47:17.092Z,45.0
2017-04-26T14:52:03.256Z,44.9
2017-04-26T14:57:03.701Z,44.9
2017-04-26T15:02:27.154Z,45.1
2017-04-26T15:07:03.339Z,45.0
2017-04-26T15:12:03.829Z,44.9
2017-04-26T15:17:27.780Z,44.8
2017-04-26T15:22:03.115Z,44.8
2017-04-26T15:27:03.575Z,44.7
2017-04-26T15:32:22.608Z,45.0
2017-04-26T15:37:03.446Z,44.9
2017-04-26T15:42:03.718Z,44.7
2017-04-26T15:47:12.846Z,44.7
2017-04-26T15:52:03.673Z,44.9
2017-04-26T15:57:03.041Z,44.9
2017-04-26T16:02:23.555Z,44.8
2017-04-26T16:07:03.151Z,44.3
2017-04-26T16:12:03.687Z,44.1
2017-04-26T16:17:28.618Z,44.6
2017-04-26T16:22:03.365Z,44.4
2017-04-26T16:27:03.767Z,44.7
2017-04-26T16:32:23.294Z,44.7
2017-04-26T16:37:03.633Z,44.7
2017-04-26T16:42:03.935Z,44.8
2017-04-26T16:47:28.348Z,45.1
2017-04-26T16:52:02.982Z,45.1
2017-04-26T16:57:03.461Z,45.1
2017-04-26T17:02:11.937Z,45.3
2017-04-26T17:07:03.524Z,45.3
2017-04-26T17:12:03.855Z,45.5
2017-04-26T17:17:18.553Z,45.4
2017-04-26T17:22:03.862Z,45.7
2017-04-26T17:27:03.198Z,45.6
2017-04-26T17:32:24.199Z,45.7
2017-04-26T17:37:03.102Z,45.7
2017-04-26T17:42:03.533Z,45.6
2017-04-26T17:52:03.627Z,45.8
2017-04-26T17:57:03.256Z,45.7
2017-04-26T18:02:25.328Z,45.7
2017-04-26T18:07:03.178Z,46.1
2017-04-26T18:12:04.002Z,45.9
2017-04-26T18:22:03.556Z,45.9
2017-04-26T18:27:03.922Z,46.0
2017-04-26T18:32:27.625Z,46.0
2017-04-26T18:37:03.789Z,46.0
2017-04-26T18:42:03.278Z,45.8
2017-04-26T18:47:26.720Z,46.0
2017-04-26T18:52:03.283Z,46.0
2017-04-26T18:57:03.577Z,46.0
2017-04-26T19:02:03.741Z,46.0
2017-04-26T19:07:03.701Z,46.2
2017-04-26T19:12:03.298Z,46.0
2017-04-26T19:17:03.532Z,46.0
2017-04-26T19:22:03.806Z,46.0
2017-04-26T19:27:03.099Z,46.0
2017-04-26T19:32:03.680Z,45.9
2017-04-26T19:37:03.672Z,46.0
2017-04-26T19:42:03.857Z,46.0
2017-04-26T19:47:03.303Z,46.1
2017-04-26T19:52:03.528Z,46.0
2017-04-26T19:57:03.657Z,46.0
2017-04-26T20:02:03.988Z,46.0
2017-04-26T20:07:03.388Z,46.1
2017-04-26T20:12:03.802Z,46.1
2017-04-26T20:17:03.298Z,46.1
2017-04-26T20:22:03.436Z,46.0
2017-04-26T20:27:03.677Z,46.0
2017-04-26T20:32:03.975Z,46.0
2017-04-26T20:37:03.361Z,46.0
2017-04-26T20:42:03.480Z,46.0
2017-04-26T20:47:03.806Z,46.0
2017-04-26T20:52:03.086Z,46.0
2017-04-26T20:57:03.626Z,46.0
2017-04-26T21:02:03.921Z,45.9
2017-04-26T21:07:03.289Z,46.0
2017-04-26T21:12:03.702Z,46.0
2017-04-26T21:17:04.053Z,46.0
2017-04-26T21:22:03.420Z,45.8
2017-04-26T21:27:03.574Z,45.7
2017-04-26T21:32:03.870Z,45.8
2017-04-26T21:37:03.430Z,45.5
2017-04-26T21:42:03.950Z,45.5
2017-04-26T21:47:03.338Z,45.5
2017-04-26T21:52:03.567Z,45.5
2017-04-26T21:57:03.868Z,45.4
2017-04-26T22:02:03.260Z,45.3
2017-04-26T22:07:03.243Z,45.4
2017-04-26T22:12:03.272Z,45.4
2017-04-26T22:22:04.179Z,44.8
2017-04-26T22:27:03.505Z,45.4
2017-04-26T22:32:04.021Z,45.3
2017-04-26T22:37:03.596Z,45.4
2017-04-26T22:42:03.334Z,45.5
2017-04-26T22:47:03.151Z,45.6
2017-04-26T22:52:03.896Z,45.4
2017-04-26T22:57:03.492Z,45.2
2017-04-26T23:02:03.336Z,45.4
2017-04-26T23:07:03.875Z,45.5
2017-04-26T23:12:03.697Z,45.5
2017-04-26T23:17:03.724Z,45.5
2017-04-26T23:22:03.332Z,45.2
2017-04-26T23:27:03.150Z,45.2
2017-04-26T23:32:03.943Z,45.2
2017-04-26T23:37:03.738Z,45.1
2017-04-26T23:42:03.765Z,45.1
2017-04-26T23:47:03.581Z,45.1
2017-04-26T23:52:03.789Z,45.1
2017-04-26T23:57:03.486Z,45.3
